createdAt,value
2023-02-01T00:01:26.418Z,2.30
2023-02-01T00:03:54.696Z,1.80
2023-02-01T00:06:23.048Z,2.20
2023-02-01T00:08:54.354Z,1.90
2023-02-01T00:13:52.255Z,2.40
2023-02-01T00:16:23.014Z,2.50
2023-02-01T00:18:53.269Z,1.30
2023-02-01T00:21:22.224Z,1.90
2023-02-01T00:23:51.274Z,2.50
2023-02-01T00:26:23.956Z,3.50
2023-02-01T00:28:52.022Z,1.60
2023-02-01T00:31:20.589Z,2.20
2023-02-01T00:33:49.605Z,3.20
2023-02-01T00:36:18.301Z,3.00
2023-02-01T00:38:46.349Z,4.20
2023-02-01T00:41:20.419Z,2.60
2023-02-01T00:43:49.439Z,2.90
2023-02-01T00:46:19.802Z,3.60
2023-02-01T00:48:48.480Z,1.90
2023-02-01T00:51:20.074Z,2.90
2023-02-01T00:53:48.558Z,1.30
2023-02-01T00:56:17.707Z,4.50
2023-02-01T00:58:46.241Z,3.90
2023-02-01T01:01:20.847Z,4.30
2023-02-01T01:03:54.892Z,4.60
2023-02-01T01:06:28.832Z,5.80
2023-02-01T01:09:00.492Z,3.10
2023-02-01T01:11:32.317Z,3.90
2023-02-01T01:14:01.432Z,4.80
2023-02-01T01:16:32.075Z,2.00
2023-02-01T01:19:01.631Z,3.40
2023-02-01T01:21:30.608Z,3.80
2023-02-01T01:23:58.833Z,4.70
2023-02-01T01:26:29.522Z,4.30
2023-02-01T01:28:59.911Z,4.80
2023-02-01T01:31:28.238Z,6.50
2023-02-01T01:33:57.891Z,5.10
2023-02-01T01:36:28.657Z,2.80
2023-02-01T01:38:57.189Z,7.60
2023-02-01T01:41:30.486Z,1.90
2023-02-01T01:44:04.405Z,4.60
2023-02-01T01:49:15.322Z,3.10
2023-02-01T01:51:49.200Z,2.80
2023-02-01T01:54:27.087Z,4.60
2023-02-01T01:57:02.011Z,3.20
2023-02-01T01:59:33.525Z,5.50
2023-02-01T02:03:25.597Z,4.10
2023-02-01T02:05:58.751Z,6.80
2023-02-01T02:08:27.981Z,2.20
2023-02-01T02:11:02.853Z,3.20
2023-02-01T02:13:38.500Z,4.30
2023-02-01T02:16:13.644Z,4.60
2023-02-01T02:18:53.156Z,6.60
2023-02-01T02:21:24.280Z,3.80
2023-02-01T02:24:40.691Z,3.60
2023-02-01T02:27:36.265Z,4.50
2023-02-01T02:30:41.600Z,2.00
2023-02-01T02:33:28.471Z,3.00
2023-02-01T02:36:02.515Z,5.50
2023-02-01T02:38:48.467Z,5.30
2023-02-01T02:41:47.250Z,6.20
2023-02-01T02:44:44.201Z,7.30
2023-02-01T02:47:26.548Z,5.40
2023-02-01T02:50:46.627Z,5.00
2023-02-01T02:53:43.922Z,9.40
2023-02-01T02:56:32.423Z,6.90
2023-02-01T02:59:22.308Z,7.90
2023-02-01T03:02:09.715Z,7.80
2023-02-01T03:04:40.904Z,4.10
2023-02-01T03:07:36.905Z,6.70
2023-02-01T03:10:11.623Z,5.70
2023-02-01T03:12:59.288Z,6.30
2023-02-01T03:15:54.107Z,9.00
2023-02-01T03:19:11.463Z,6.40
2023-02-01T03:21:49.259Z,5.20
2023-02-01T03:24:47.474Z,9.40
2023-02-01T03:27:22.123Z,6.50
2023-02-01T03:30:03.633Z,7.80
2023-02-01T03:32:52.770Z,8.70
2023-02-01T03:35:31.839Z,7.80
2023-02-01T03:38:26.243Z,9.80
2023-02-01T03:41:04.861Z,7.90
2023-02-01T03:43:41.202Z,9.80
2023-02-01T03:46:18.682Z,7.10
2023-02-01T03:48:47.707Z,5.50
2023-02-01T03:51:17.146Z,8.10
2023-02-01T03:53:48.556Z,7.70
2023-02-01T03:56:22.425Z,9.20
2023-02-01T03:58:59.793Z,3.40
2023-02-01T04:01:31.972Z,7.10
2023-02-01T04:04:00.985Z,6.20
2023-02-01T04:06:29.300Z,4.20
2023-02-01T04:09:01.275Z,7.50
2023-02-01T04:11:30.200Z,8.90
2023-02-01T04:13:58.281Z,9.30
2023-02-01T04:16:26.943Z,7.20
2023-02-01T04:18:55.128Z,7.40
2023-02-01T04:21:23.135Z,5.20
2023-02-01T04:23:51.880Z,6.60
2023-02-01T04:26:20.718Z,6.70
2023-02-01T04:28:48.866Z,4.90
2023-02-01T04:31:18.362Z,4.40
2023-02-01T04:33:46.430Z,5.40
2023-02-01T04:36:14.484Z,9.60
2023-02-01T04:38:43.034Z,7.10
2023-02-01T04:41:11.044Z,9.40
2023-02-01T04:43:39.218Z,6.90
2023-02-01T04:46:07.633Z,6.40
2023-02-01T04:48:35.674Z,8.00
2023-02-01T04:51:03.863Z,5.50
2023-02-01T04:53:32.329Z,4.90
2023-02-01T04:56:00.433Z,8.80
2023-02-01T04:58:28.483Z,9.00
2023-02-01T05:00:57.222Z,7.30
2023-02-01T05:03:25.509Z,7.70
2023-02-01T05:05:54.748Z,6.70
2023-02-01T05:08:23.816Z,8.70
2023-02-01T05:10:51.840Z,7.50
2023-02-01T05:13:38.835Z,5.30
2023-02-01T05:16:07.520Z,6.10
2023-02-01T05:18:35.616Z,6.30
2023-02-01T05:21:03.866Z,7.40
2023-02-01T05:23:32.537Z,12.00
2023-02-01T05:26:01.697Z,12.20
2023-02-01T05:28:30.271Z,8.90
2023-02-01T05:30:58.725Z,8.30
2023-02-01T05:33:26.803Z,9.90
2023-02-01T05:35:54.903Z,9.50
2023-02-01T05:38:23.217Z,4.10
2023-02-01T05:40:51.343Z,7.00
2023-02-01T05:43:19.564Z,8.10
2023-02-01T05:45:48.373Z,7.10
2023-02-01T05:48:16.469Z,7.70
2023-02-01T05:50:45.105Z,12.40
2023-02-01T05:53:13.957Z,9.80
2023-02-01T05:55:43.186Z,8.70
2023-02-01T05:58:11.893Z,6.70
2023-02-01T06:00:40.687Z,9.70
2023-02-01T06:03:09.063Z,6.00
2023-02-01T06:05:38.217Z,6.40
2023-02-01T06:08:08.552Z,9.20
2023-02-01T06:10:36.599Z,7.10
2023-02-01T06:13:04.961Z,6.60
2023-02-01T06:15:33.773Z,10.90
2023-02-01T06:18:01.885Z,7.30
2023-02-01T06:20:30.101Z,7.50
2023-02-01T06:22:59.799Z,7.70
2023-02-01T06:25:28.012Z,10.50
2023-02-01T06:27:56.239Z,6.80
2023-02-01T06:30:24.915Z,6.90
2023-02-01T06:32:56.160Z,12.70
2023-02-01T06:35:24.955Z,8.40
2023-02-01T06:37:53.373Z,10.50
2023-02-01T06:40:21.755Z,5.20
2023-02-01T06:42:50.744Z,5.40
2023-02-01T06:45:19.566Z,5.80
2023-02-01T06:47:47.635Z,9.60
2023-02-01T06:50:16.199Z,5.40
2023-02-01T06:52:44.884Z,7.90
2023-02-01T06:55:14.052Z,8.70
2023-02-01T06:57:42.234Z,7.30
2023-02-01T07:00:11.206Z,9.00
2023-02-01T07:02:40.025Z,8.20
2023-02-01T07:05:08.670Z,6.10
2023-02-01T07:07:36.989Z,9.60
2023-02-01T07:10:05.423Z,7.50
2023-02-01T07:12:33.665Z,9.80
2023-02-01T07:15:03.449Z,8.30
2023-02-01T07:17:31.736Z,8.40
2023-02-01T07:20:00.967Z,11.00
2023-02-01T07:22:29.417Z,5.70
2023-02-01T07:24:57.590Z,7.50
2023-02-01T07:27:26.807Z,10.00
2023-02-01T07:29:56.656Z,8.30
2023-02-01T07:32:24.842Z,11.60
2023-02-01T07:34:52.989Z,10.20
2023-02-01T07:37:21.178Z,8.70
2023-02-01T07:39:49.357Z,11.80
2023-02-01T07:42:17.650Z,13.30
2023-02-01T07:44:45.893Z,13.50
2023-02-01T07:47:14.009Z,14.20
2023-02-01T07:49:42.291Z,8.10
2023-02-01T07:52:12.288Z,8.30
2023-02-01T07:54:40.476Z,10.40
2023-02-01T07:57:09.978Z,8.50
2023-02-01T07:59:58.451Z,11.50
2023-02-01T08:02:27.144Z,11.70
2023-02-01T08:04:56.549Z,17.60
2023-02-01T08:07:24.631Z,11.50
2023-02-01T08:09:52.810Z,12.00
2023-02-01T08:12:21.110Z,11.10
2023-02-01T08:14:49.160Z,13.80
2023-02-01T08:17:17.411Z,10.70
2023-02-01T08:19:45.753Z,9.60
2023-02-01T08:22:14.070Z,11.10
2023-02-01T08:24:42.869Z,7.70
2023-02-01T08:27:11.144Z,7.90
2023-02-01T08:29:39.163Z,7.50
2023-02-01T08:32:08.582Z,8.50
2023-02-01T08:34:36.922Z,10.10
2023-02-01T08:37:04.931Z,11.60
2023-02-01T08:39:33.126Z,9.10
2023-02-01T08:42:20.055Z,8.30
2023-02-01T08:44:48.609Z,11.70
2023-02-01T08:47:16.800Z,9.80
2023-02-01T08:49:44.893Z,11.90
2023-02-01T08:52:16.140Z,7.00
2023-02-01T08:54:44.942Z,6.70
2023-02-01T08:57:13.111Z,10.40
2023-02-01T08:59:41.245Z,12.20
2023-02-01T09:02:14.357Z,6.60
2023-02-01T09:04:43.040Z,13.10
2023-02-01T09:07:11.551Z,14.40
2023-02-01T09:09:39.984Z,12.80
2023-02-01T09:12:08.202Z,12.70
2023-02-01T09:14:36.627Z,9.60
2023-02-01T09:17:06.437Z,11.50
2023-02-01T09:19:34.714Z,7.00
2023-02-01T09:22:02.928Z,12.10
2023-02-01T09:24:31.267Z,10.20
2023-02-01T09:26:59.396Z,10.90
2023-02-01T09:29:27.853Z,7.90
2023-02-01T09:32:03.375Z,9.20
2023-02-01T09:34:33.114Z,11.20
2023-02-01T09:37:01.275Z,12.50
2023-02-01T09:39:31.126Z,10.70
2023-02-01T09:42:22.562Z,10.10
2023-02-01T09:47:23.699Z,13.70
2023-02-01T09:49:59.603Z,10.50
2023-02-01T09:52:47.055Z,12.30
2023-02-01T09:55:24.921Z,13.20
2023-02-01T09:58:01.856Z,10.00
2023-02-01T10:00:35.206Z,8.30
2023-02-01T10:03:04.955Z,13.40
2023-02-01T10:05:57.751Z,11.70
2023-02-01T10:08:59.110Z,13.30
2023-02-01T10:11:51.824Z,14.70
2023-02-01T10:14:28.752Z,9.20
2023-02-01T10:17:24.315Z,12.70
2023-02-01T10:20:01.912Z,10.30
2023-02-01T10:23:19.099Z,14.40
2023-02-01T10:25:56.888Z,11.50
2023-02-01T10:28:27.045Z,10.80
2023-02-01T10:30:59.912Z,11.20
2023-02-01T10:33:35.733Z,9.80
2023-02-01T10:36:18.396Z,11.60
2023-02-01T10:38:47.375Z,7.90
2023-02-01T10:41:25.133Z,9.00
2023-02-01T10:43:58.587Z,11.60
2023-02-01T10:46:27.136Z,9.70
2023-02-01T10:48:57.694Z,11.00
2023-02-01T10:51:30.961Z,11.20
2023-02-01T10:54:09.721Z,12.90
2023-02-01T10:56:39.556Z,10.70
2023-02-01T10:59:17.337Z,14.80
2023-02-01T11:01:48.547Z,13.10
2023-02-01T11:04:21.796Z,12.70
2023-02-01T11:07:05.581Z,9.70
2023-02-01T11:09:36.227Z,12.70
2023-02-01T11:12:04.504Z,8.90
2023-02-01T11:14:40.285Z,11.70
2023-02-01T11:17:25.908Z,15.80
2023-02-01T11:20:03.870Z,12.80
2023-02-01T11:22:32.184Z,8.60
2023-02-01T11:25:08.544Z,15.70
2023-02-01T11:27:43.034Z,11.90
2023-02-01T11:30:21.604Z,11.70
2023-02-01T11:32:51.773Z,10.00
2023-02-01T11:35:22.318Z,9.90
2023-02-01T11:38:01.812Z,11.40
2023-02-01T11:40:36.784Z,8.10
2023-02-01T11:43:25.395Z,6.70
2023-02-01T11:45:58.070Z,10.20
2023-02-01T11:48:28.600Z,10.70
2023-02-01T11:51:24.408Z,7.30
2023-02-01T11:54:17.711Z,8.10
2023-02-01T11:57:33.698Z,9.60
2023-02-01T12:00:31.799Z,7.70
2023-02-01T12:03:19.667Z,11.90
2023-02-01T12:06:07.432Z,5.90
2023-02-01T12:08:38.154Z,6.00
2023-02-01T12:11:25.950Z,7.00
2023-02-01T12:14:03.354Z,5.10
2023-02-01T12:16:40.314Z,6.60
2023-02-01T12:19:41.965Z,7.90
2023-02-01T12:22:20.969Z,6.00
2023-02-01T12:25:24.737Z,5.50
2023-02-01T12:28:24.378Z,8.80
2023-02-01T12:31:11.137Z,5.90
2023-02-01T12:33:48.475Z,7.50
2023-02-01T12:36:44.571Z,8.40
2023-02-01T12:39:33.990Z,11.60
2023-02-01T12:42:14.670Z,9.60
2023-02-01T12:44:58.204Z,8.00
2023-02-01T12:47:34.127Z,7.30
2023-02-01T12:50:22.922Z,8.20
2023-02-01T12:52:53.680Z,8.20
2023-02-01T12:55:25.555Z,10.40
2023-02-01T12:58:02.315Z,7.80
2023-02-01T13:00:41.588Z,7.10
2023-02-01T13:03:38.093Z,9.50
2023-02-01T13:06:15.767Z,8.10
2023-02-01T13:08:46.529Z,6.00
2023-02-01T13:11:23.603Z,8.70
2023-02-01T13:14:21.030Z,7.40
2023-02-01T13:17:14.067Z,9.20
2023-02-01T13:19:52.953Z,11.80
2023-02-01T13:22:32.071Z,10.20
2023-02-01T13:25:04.333Z,8.10
2023-02-01T13:27:34.153Z,7.00
2023-02-01T13:30:12.670Z,7.30
2023-02-01T13:33:53.601Z,9.20
2023-02-01T13:35:58.903Z,7.80
2023-02-01T13:38:30.103Z,7.30
2023-02-01T13:43:40.014Z,5.90
2023-02-01T13:46:14.453Z,5.80
2023-02-01T13:48:57.553Z,6.30
2023-02-01T13:51:44.650Z,5.30
2023-02-01T13:54:28.687Z,6.50
2023-02-01T13:57:00.129Z,8.00
2023-02-01T13:59:40.517Z,10.40
2023-02-01T14:02:39.658Z,7.70
2023-02-01T14:05:31.073Z,7.20
2023-02-01T14:08:23.971Z,7.40
2023-02-01T14:10:55.406Z,10.40
2023-02-01T14:13:39.912Z,7.60
2023-02-01T14:16:17.378Z,10.40
2023-02-01T14:18:47.417Z,9.10
2023-02-01T14:21:38.523Z,7.60
2023-02-01T14:24:09.467Z,5.50
2023-02-01T14:26:49.365Z,6.80
2023-02-01T14:29:21.738Z,6.60
2023-02-01T14:32:17.932Z,5.90
2023-02-01T14:34:48.940Z,6.60
2023-02-01T14:37:21.827Z,6.30
2023-02-01T14:40:02.400Z,5.00
2023-02-01T14:42:42.544Z,7.70
2023-02-01T14:45:20.446Z,4.30
2023-02-01T14:48:07.089Z,5.20
2023-02-01T14:50:43.824Z,4.00
2023-02-01T14:53:20.222Z,7.90
2023-02-01T14:56:14.357Z,6.90
2023-02-01T14:58:49.913Z,7.40
2023-02-01T15:01:33.197Z,6.40
2023-02-01T15:04:01.578Z,4.40
2023-02-01T15:06:42.137Z,5.20
2023-02-01T15:09:12.167Z,8.90
2023-02-01T15:11:58.956Z,5.80
2023-02-01T15:14:29.748Z,6.30
2023-02-01T15:16:58.056Z,8.30
2023-02-01T15:19:29.047Z,6.10
2023-02-01T15:21:59.239Z,8.70
2023-02-01T15:24:30.322Z,6.80
2023-02-01T15:29:36.560Z,6.40
2023-02-01T15:32:05.994Z,5.50
2023-02-01T15:34:48.898Z,8.60
2023-02-01T15:37:19.591Z,7.20
2023-02-01T15:40:12.832Z,7.10
2023-02-01T15:42:53.778Z,5.70
2023-02-01T15:45:26.529Z,5.90
2023-02-01T15:47:57.441Z,6.80
2023-02-01T15:50:27.042Z,5.70
2023-02-01T15:52:58.912Z,6.60
2023-02-01T15:55:26.918Z,6.80
2023-02-01T15:57:54.928Z,6.10
2023-02-01T16:00:28.866Z,7.70
2023-02-01T16:02:59.391Z,8.10
2023-02-01T16:05:39.397Z,8.40
2023-02-01T16:08:21.399Z,7.50
2023-02-01T16:10:52.894Z,6.30
2023-02-01T16:13:21.966Z,9.70
2023-02-01T16:15:50.546Z,8.60
2023-02-01T16:18:19.253Z,5.00
2023-02-01T16:20:48.942Z,7.50
2023-02-01T16:23:17.046Z,7.60
2023-02-01T16:25:45.496Z,7.70
2023-02-01T16:28:13.577Z,6.70
2023-02-01T16:30:41.939Z,8.20
2023-02-01T16:33:18.971Z,9.00
2023-02-01T16:35:48.224Z,6.20
2023-02-01T16:38:20.043Z,8.20
2023-02-01T16:40:49.701Z,9.60
2023-02-01T16:43:20.537Z,8.50
2023-02-01T16:45:50.978Z,8.80
2023-02-01T16:48:28.864Z,15.50
2023-02-01T16:51:04.002Z,7.20
2023-02-01T16:53:36.524Z,10.20
2023-02-01T16:56:19.285Z,12.20
2023-02-01T16:58:48.394Z,9.80
2023-02-01T17:01:19.557Z,14.40
2023-02-01T17:06:18.713Z,10.60
2023-02-01T17:08:51.485Z,8.40
2023-02-01T17:11:20.012Z,15.40
2023-02-01T17:13:48.170Z,11.20
2023-02-01T17:16:19.090Z,12.20
2023-02-01T17:19:03.309Z,8.80
2023-02-01T17:21:43.818Z,11.50
2023-02-01T17:24:17.643Z,14.40
2023-02-01T17:26:46.251Z,10.10
2023-02-01T17:29:14.555Z,7.90
2023-02-01T17:31:46.711Z,7.50
2023-02-01T17:34:16.046Z,7.30
2023-02-01T17:36:45.942Z,8.80
2023-02-01T17:39:36.484Z,9.10
2023-02-01T17:42:06.088Z,9.80
2023-02-01T17:44:34.165Z,10.30
2023-02-01T17:47:02.340Z,9.50
2023-02-01T17:49:30.617Z,10.10
2023-02-01T17:51:58.807Z,8.40
2023-02-01T17:54:26.989Z,8.10
2023-02-01T17:56:55.349Z,4.70
2023-02-01T17:59:23.389Z,5.90
2023-02-01T18:01:52.101Z,6.90
2023-02-01T18:04:21.742Z,7.00
2023-02-01T18:06:49.796Z,5.30
2023-02-01T18:09:17.928Z,7.10
2023-02-01T18:11:46.801Z,8.00
2023-02-01T18:14:14.885Z,6.90
2023-02-01T18:16:43.122Z,9.30
2023-02-01T18:19:11.448Z,8.70
2023-02-01T18:21:44.759Z,8.10
2023-02-01T18:24:14.881Z,7.00
2023-02-01T18:26:43.418Z,8.70
2023-02-01T18:29:11.634Z,6.10
2023-02-01T18:31:52.490Z,9.70
2023-02-01T18:34:25.425Z,7.70
2023-02-01T18:36:54.016Z,9.30
2023-02-01T18:39:21.989Z,8.30
2023-02-01T18:41:51.938Z,9.00
2023-02-01T18:44:20.352Z,7.20
2023-02-01T18:46:48.497Z,11.40
2023-02-01T18:49:18.919Z,7.40
2023-02-01T18:51:47.134Z,9.70
2023-02-01T18:54:15.142Z,10.30
2023-02-01T18:56:43.887Z,7.90
2023-02-01T18:59:12.140Z,7.40
2023-02-01T19:01:40.414Z,10.40
2023-02-01T19:04:13.759Z,10.50
2023-02-01T19:06:47.076Z,5.50
2023-02-01T19:09:15.210Z,8.70
2023-02-01T19:11:43.317Z,6.50
2023-02-01T19:14:11.651Z,7.70
2023-02-01T19:16:40.115Z,6.30
2023-02-01T19:19:08.980Z,7.70
2023-02-01T19:21:37.651Z,11.60
2023-02-01T19:24:06.225Z,7.00
2023-02-01T19:26:34.397Z,6.20
2023-02-01T19:29:02.735Z,7.70
2023-02-01T19:31:31.500Z,6.80
2023-02-01T19:33:59.648Z,10.00
2023-02-01T19:36:28.523Z,9.40
2023-02-01T19:38:56.869Z,10.70
2023-02-01T19:41:24.981Z,10.00
2023-02-01T19:43:53.270Z,8.00
2023-02-01T19:46:21.532Z,7.70
2023-02-01T19:48:49.641Z,6.80
2023-02-01T19:51:18.024Z,8.70
2023-02-01T19:53:46.320Z,7.20
2023-02-01T19:56:14.493Z,7.60
2023-02-01T19:58:42.871Z,9.00
2023-02-01T20:01:10.282Z,9.40
2023-02-01T20:03:38.756Z,9.30
2023-02-01T20:06:07.472Z,7.70
2023-02-01T20:08:35.971Z,6.20
2023-02-01T20:11:06.392Z,10.70
2023-02-01T20:13:35.834Z,9.10
2023-02-01T20:16:04.147Z,5.90
2023-02-01T20:18:32.219Z,8.90
2023-02-01T20:21:00.343Z,8.70
2023-02-01T20:23:28.552Z,7.80
2023-02-01T20:26:10.072Z,8.40
2023-02-01T20:28:38.830Z,10.70
2023-02-01T20:31:28.802Z,8.00
2023-02-01T20:33:58.934Z,6.40
2023-02-01T20:36:28.500Z,8.30
2023-02-01T20:38:57.703Z,6.50
2023-02-01T20:41:26.762Z,7.20
2023-02-01T20:43:55.330Z,4.90
2023-02-01T20:46:23.924Z,6.50
2023-02-01T20:48:52.443Z,5.40
2023-02-01T20:51:21.537Z,7.30
2023-02-01T20:53:53.701Z,6.30
2023-02-01T20:56:23.085Z,6.30
2023-02-01T20:58:51.121Z,7.30
2023-02-01T21:01:19.213Z,8.20
2023-02-01T21:03:47.854Z,8.90
2023-02-01T21:06:15.976Z,6.30
2023-02-01T21:08:44.020Z,10.00
2023-02-01T21:11:14.245Z,10.30
2023-02-01T21:13:50.562Z,9.20
2023-02-01T21:16:21.902Z,5.80
2023-02-01T21:21:20.420Z,10.90
2023-02-01T21:23:53.180Z,7.50
2023-02-01T21:26:22.927Z,8.90
2023-02-01T21:28:52.974Z,10.00
2023-02-01T21:31:22.576Z,5.80
2023-02-01T21:33:51.643Z,9.60
2023-02-01T21:36:19.985Z,8.00
2023-02-01T21:38:52.420Z,9.40
2023-02-01T21:41:43.900Z,7.20
2023-02-01T21:44:14.826Z,7.30
2023-02-01T21:46:44.391Z,6.30
2023-02-01T21:49:13.458Z,10.00
2023-02-01T21:51:42.736Z,10.00
2023-02-01T21:54:12.220Z,7.30
2023-02-01T21:56:41.240Z,7.90
2023-02-01T21:59:13.361Z,6.70
2023-02-01T22:01:42.236Z,8.60
2023-02-01T22:04:11.104Z,7.10
2023-02-01T22:06:47.254Z,7.70
2023-02-01T22:09:22.198Z,7.30
2023-02-01T22:11:51.885Z,8.10
2023-02-01T22:14:21.015Z,5.60
2023-02-01T22:16:49.551Z,6.50
2023-02-01T22:19:18.850Z,8.10
2023-02-01T22:21:48.271Z,7.00
2023-02-01T22:24:18.243Z,6.50
2023-02-01T22:26:46.543Z,8.40
2023-02-01T22:29:15.170Z,5.40
2023-02-01T22:31:43.615Z,6.40
2023-02-01T22:34:12.707Z,5.20
2023-02-01T22:36:41.323Z,6.80
2023-02-01T22:39:09.878Z,5.10
2023-02-01T22:41:38.053Z,5.60
2023-02-01T22:44:06.968Z,6.20
2023-02-01T22:46:35.104Z,5.10
2023-02-01T22:49:05.230Z,4.90
2023-02-01T22:51:33.962Z,7.30
2023-02-01T22:54:02.238Z,4.40
2023-02-01T22:56:36.802Z,6.70
2023-02-01T22:59:09.989Z,5.40
2023-02-01T23:01:38.191Z,5.20
2023-02-01T23:04:10.102Z,5.60
2023-02-01T23:06:38.910Z,4.70
2023-02-01T23:09:14.421Z,5.30
2023-02-01T23:11:43.108Z,7.00
2023-02-01T23:14:12.805Z,4.50
2023-02-01T23:16:41.606Z,7.00
2023-02-01T23:19:09.728Z,5.60
2023-02-01T23:21:37.907Z,6.60
2023-02-01T23:24:08.348Z,7.10
2023-02-01T23:26:36.911Z,6.40
2023-02-01T23:29:05.526Z,4.40
2023-02-01T23:31:35.484Z,4.30
2023-02-01T23:34:05.044Z,6.10
2023-02-01T23:36:34.248Z,6.90
2023-02-01T23:39:02.652Z,6.10
2023-02-01T23:41:31.823Z,7.60
2023-02-01T23:44:00.588Z,11.30
2023-02-01T23:46:28.625Z,6.20
2023-02-01T23:48:57.072Z,7.70
2023-02-01T23:51:26.162Z,6.00
2023-02-01T23:53:55.560Z,5.20
2023-02-01T23:56:26.351Z,7.60
